Merida, Mexico

2:52 PM CDT on April 23, 2017 (GMT -0500)
Lic Manuel Crecencio Rejon | | Change Station

Elev 33 ft 20.98 °N, 89.65 °W | Updated 1 hour ago

Mostly Cloudy
Mostly Cloudy
90 °F
Feels Like 92 °F
N
13
Wind Variable Wind from NNE

Today
High -- | Low -- °F
--% Chance of Precip.
Yesterday
High -- | Low -- °F
Precip. -- in
Pressure 29.89 in
Visibility 7.0 miles
Clouds Mostly Cloudy 2000 ft
Heat Index 92 °F
Dew Point 66 °F
Humidity 46%
Rainfall 0.00 in
Snow Depth Not available.
6:33 AM 7:20 PM
Waning Crescent, 10% visible
METAR MMMD 231845Z 02011KT 7SM BKN020 32/19 A2989 RMK 8/100 MDT CU
Pressure 29.89 in
Visibility 7.0 miles
Clouds Mostly Cloudy 2000 ft
Heat Index 92 °F
Dew Point 66 °F
Humidity 46%
Rainfall 0.00 in
Snow Depth Not available.
6:33 AM 7:20 PM
Waning Crescent, 10% visible
METAR MMMD 231845Z 02011KT 7SM BKN020 32/19 A2989 RMK 8/100 MDT CU

Get Severe Weather Alerts

Thanks for signing up!

Be on the lookout for a verification email in your inbox.

You'll start receiving the daily forecast at 8 AM.

×

10-Day Weather Forecast

No radar image for this location.
×

Almanac

Astronomy

Apr. 23, 2017 Rise Set
Actual Time
Civil Twilight
Nautical Twilight
Astronomical Twilight
Moon
Length of Visible Light
Length of Day
Tomorrow will be .
, % of the Moon is Illuminated

Today's Extremes

Country Highs Country Lows

Community

WunderPhotos

WunderBlog® & News

Nearby

Air Quality

  Air Quality AQ Index Pollutant
Not available.

Snow Depth

Station Depth Elevation

Earthquake Activity

City Distance Mag. Time & Date
Minimum magnitude displayed is 2.5.

Coastal Water Temperatures

Place Temperature

Stations

Nearby Weather Stations

Station Location Temp. Windchill Dew Point Humidity Wind Precip. Elev Updated Type